sensor_id;sensor_type;location;lat;lon;timestamp;P1;durP1;ratioP1;P2;durP2;ratioP2
56629;SDS011;42502;40.732;-74.254;2023-03-03T00:01:53;1.98;;;0.70;;
56629;SDS011;42502;40.732;-74.254;2023-03-03T00:03:54;1.75;;;0.60;;
56629;SDS011;42502;40.732;-74.254;2023-03-03T00:05:55;4.15;;;0.80;;
56629;SDS011;42502;40.732;-74.254;2023-03-03T00:07:57;4.72;;;0.77;;
56629;SDS011;42502;40.732;-74.254;2023-03-03T00:09:58;1.63;;;0.77;;
56629;SDS011;42502;40.732;-74.254;2023-03-03T00:11:59;2.83;;;0.70;;
56629;SDS011;42502;40.732;-74.254;2023-03-03T00:14:18;3.05;;;0.80;;
56629;SDS011;42502;40.732;-74.254;2023-03-03T00:20:38;3.08;;;0.80;;
56629;SDS011;42502;40.732;-74.254;2023-03-03T00:22:39;4.43;;;0.80;;
56629;SDS011;42502;40.732;-74.254;2023-03-03T00:24:40;0.70;;;0.63;;
56629;SDS011;42502;40.732;-74.254;2023-03-03T00:26:44;1.98;;;0.70;;
56629;SDS011;42502;40.732;-74.254;2023-03-03T00:28:50;2.95;;;0.60;;
56629;SDS011;42502;40.732;-74.254;2023-03-03T00:30:54;7.53;;;1.05;;
56629;SDS011;42502;40.732;-74.254;2023-03-03T00:32:57;6.35;;;0.77;;
56629;SDS011;42502;40.732;-74.254;2023-03-03T00:35:00;3.67;;;0.70;;
56629;SDS011;42502;40.732;-74.254;2023-03-03T00:39:34;3.30;;;0.70;;
56629;SDS011;42502;40.732;-74.254;2023-03-03T00:41:37;2.08;;;0.60;;
56629;SDS011;42502;40.732;-74.254;2023-03-03T00:43:39;3.38;;;0.80;;
56629;SDS011;42502;40.732;-74.254;2023-03-03T00:45:42;12.68;;;0.88;;
56629;SDS011;42502;40.732;-74.254;2023-03-03T00:47:45;12.90;;;1.23;;
56629;SDS011;42502;40.732;-74.254;2023-03-03T00:49:46;9.95;;;0.93;;
56629;SDS011;42502;40.732;-74.254;2023-03-03T00:51:46;5.80;;;0.80;;
56629;SDS011;42502;40.732;-74.254;2023-03-03T00:53:48;7.93;;;0.80;;
56629;SDS011;42502;40.732;-74.254;2023-03-03T00:55:49;5.95;;;0.75;;
56629;SDS011;42502;40.732;-74.254;2023-03-03T00:57:52;4.72;;;0.80;;
56629;SDS011;42502;40.732;-74.254;2023-03-03T00:59:52;14.43;;;0.80;;
56629;SDS011;42502;40.732;-74.254;2023-03-03T01:01:56;29.55;;;2.33;;
56629;SDS011;42502;40.732;-74.254;2023-03-03T01:03:57;21.55;;;1.50;;
56629;SDS011;42502;40.732;-74.254;2023-03-03T01:05:58;21.38;;;1.17;;
56629;SDS011;42502;40.732;-74.254;2023-03-03T01:08:01;50.85;;;1.90;;
56629;SDS011;42502;40.732;-74.254;2023-03-03T01:10:03;24.05;;;1.27;;
56629;SDS011;42502;40.732;-74.254;2023-03-03T01:12:04;22.05;;;1.20;;
56629;SDS011;42502;40.732;-74.254;2023-03-03T01:14:09;18.67;;;1.45;;
56629;SDS011;42502;40.732;-74.254;2023-03-03T01:16:10;31.70;;;1.25;;
56629;SDS011;42502;40.732;-74.254;2023-03-03T01:18:11;41.47;;;2.85;;
56629;SDS011;42502;40.732;-74.254;2023-03-03T01:20:13;32.25;;;1.45;;
56629;SDS011;42502;40.732;-74.254;2023-03-03T01:22:14;15.00;;;0.90;;
56629;SDS011;42502;40.732;-74.254;2023-03-03T01:24:15;18.95;;;0.82;;
56629;SDS011;42502;40.732;-74.254;2023-03-03T01:26:16;11.63;;;0.98;;
56629;SDS011;42502;40.732;-74.254;2023-03-03T01:28:17;28.63;;;1.70;;
56629;SDS011;42502;40.732;-74.254;2023-03-03T01:30:18;12.07;;;0.70;;
56629;SDS011;42502;40.732;-74.254;2023-03-03T01:32:19;17.40;;;0.95;;
56629;SDS011;42502;40.732;-74.254;2023-03-03T01:34:20;11.70;;;0.70;;
56629;SDS011;42502;40.732;-74.254;2023-03-03T01:36:24;6.72;;;0.80;;
56629;SDS011;42502;40.732;-74.254;2023-03-03T01:38:27;6.15;;;0.88;;
56629;SDS011;42502;40.732;-74.254;2023-03-03T01:40:28;3.35;;;0.80;;
56629;SDS011;42502;40.732;-74.254;2023-03-03T01:42:30;12.57;;;0.88;;
56629;SDS011;42502;40.732;-74.254;2023-03-03T01:44:31;8.35;;;1.25;;
56629;SDS011;42502;40.732;-74.254;2023-03-03T01:48:44;4.20;;;0.63;;
56629;SDS011;42502;40.732;-74.254;2023-03-03T01:50:55;1.65;;;0.60;;
56629;SDS011;42502;40.732;-74.254;2023-03-03T01:53:04;8.10;;;0.90;;
56629;SDS011;42502;40.732;-74.254;2023-03-03T01:55:13;6.47;;;0.73;;
56629;SDS011;42502;40.732;-74.254;2023-03-03T01:57:25;3.50;;;1.13;;
56629;SDS011;42502;40.732;-74.254;2023-03-03T01:59:33;5.30;;;0.65;;
56629;SDS011;42502;40.732;-74.254;2023-03-03T02:01:37;2.85;;;0.60;;
56629;SDS011;42502;40.732;-74.254;2023-03-03T02:03:39;3.42;;;0.80;;
56629;SDS011;42502;40.732;-74.254;2023-03-03T02:05:40;2.38;;;0.80;;
56629;SDS011;42502;40.732;-74.254;2023-03-03T02:07:42;2.92;;;0.75;;
56629;SDS011;42502;40.732;-74.254;2023-03-03T02:09:50;2.83;;;0.70;;
56629;SDS011;42502;40.732;-74.254;2023-03-03T02:12:00;1.50;;;0.60;;
56629;SDS011;42502;40.732;-74.254;2023-03-03T02:14:04;2.55;;;0.60;;
56629;SDS011;42502;40.732;-74.254;2023-03-03T02:16:05;3.30;;;0.80;;
56629;SDS011;42502;40.732;-74.254;2023-03-03T02:18:12;3.97;;;0.75;;
56629;SDS011;42502;40.732;-74.254;2023-03-03T02:20:26;2.42;;;0.63;;
56629;SDS011;42502;40.732;-74.254;2023-03-03T02:22:40;3.75;;;0.70;;
56629;SDS011;42502;40.732;-74.254;2023-03-03T02:24:50;2.65;;;0.77;;
56629;SDS011;42502;40.732;-74.254;2023-03-03T02:26:58;2.25;;;0.70;;
56629;SDS011;42502;40.732;-74.254;2023-03-03T02:28:59;4.82;;;0.70;;
56629;SDS011;42502;40.732;-74.254;2023-03-03T02:31:00;1.10;;;0.70;;
56629;SDS011;42502;40.732;-74.254;2023-03-03T02:33:01;3.03;;;0.70;;
56629;SDS011;42502;40.732;-74.254;2023-03-03T02:35:23;2.83;;;0.80;;
56629;SDS011;42502;40.732;-74.254;2023-03-03T02:37:30;5.10;;;0.90;;
56629;SDS011;42502;40.732;-74.254;2023-03-03T02:39:31;5.18;;;0.90;;
56629;SDS011;42502;40.732;-74.254;2023-03-03T02:43:38;1.58;;;0.98;;
56629;SDS011;42502;40.732;-74.254;2023-03-03T02:45:53;3.33;;;0.70;;
56629;SDS011;42502;40.732;-74.254;2023-03-03T02:47:53;2.45;;;0.80;;
56629;SDS011;42502;40.732;-74.254;2023-03-03T02:49:54;3.63;;;0.70;;
56629;SDS011;42502;40.732;-74.254;2023-03-03T02:51:55;2.97;;;0.90;;
56629;SDS011;42502;40.732;-74.254;2023-03-03T02:53:56;11.57;;;1.00;;
56629;SDS011;42502;40.732;-74.254;2023-03-03T02:55:57;4.25;;;0.80;;
56629;SDS011;42502;40.732;-74.254;2023-03-03T02:58:00;1.52;;;0.80;;
56629;SDS011;42502;40.732;-74.254;2023-03-03T03:00:01;0.80;;;0.70;;
56629;SDS011;42502;40.732;-74.254;2023-03-03T03:02:02;4.53;;;0.82;;
56629;SDS011;42502;40.732;-74.254;2023-03-03T03:04:06;6.90;;;1.00;;
56629;SDS011;42502;40.732;-74.254;2023-03-03T03:06:09;4.55;;;0.90;;
56629;SDS011;42502;40.732;-74.254;2023-03-03T03:08:10;3.78;;;0.90;;
56629;SDS011;42502;40.732;-74.254;2023-03-03T03:10:14;3.60;;;0.93;;
56629;SDS011;42502;40.732;-74.254;2023-03-03T03:12:15;7.75;;;0.80;;
56629;SDS011;42502;40.732;-74.254;2023-03-03T03:14:18;1.83;;;0.70;;
56629;SDS011;42502;40.732;-74.254;2023-03-03T03:16:19;6.53;;;0.90;;
56629;SDS011;42502;40.732;-74.254;2023-03-03T03:18:20;5.60;;;0.98;;
56629;SDS011;42502;40.732;-74.254;2023-03-03T03:20:21;3.10;;;0.90;;
56629;SDS011;42502;40.732;-74.254;2023-03-03T03:22:22;4.50;;;0.85;;
56629;SDS011;42502;40.732;-74.254;2023-03-03T03:24:28;3.85;;;1.00;;
56629;SDS011;42502;40.732;-74.254;2023-03-03T03:26:29;6.18;;;0.90;;
56629;SDS011;42502;40.732;-74.254;2023-03-03T03:28:32;3.20;;;0.82;;
56629;SDS011;42502;40.732;-74.254;2023-03-03T03:30:34;2.53;;;0.93;;
56629;SDS011;42502;40.732;-74.254;2023-03-03T03:32:35;2.75;;;0.80;;
56629;SDS011;42502;40.732;-74.254;2023-03-03T03:34:36;1.00;;;0.70;;
56629;SDS011;42502;40.732;-74.254;2023-03-03T03:36:40;2.08;;;0.80;;
56629;SDS011;42502;40.732;-74.254;2023-03-03T03:38:42;3.10;;;0.90;;
56629;SDS011;42502;40.732;-74.254;2023-03-03T03:40:43;2.50;;;0.70;;
56629;SDS011;42502;40.732;-74.254;2023-03-03T03:42:44;5.63;;;0.90;;
56629;SDS011;42502;40.732;-74.254;2023-03-03T03:44:45;4.40;;;0.90;;
56629;SDS011;42502;40.732;-74.254;2023-03-03T03:46:51;2.50;;;0.77;;
56629;SDS011;42502;40.732;-74.254;2023-03-03T03:48:52;4.53;;;1.08;;
56629;SDS011;42502;40.732;-74.254;2023-03-03T03:50:53;5.80;;;1.08;;
56629;SDS011;42502;40.732;-74.254;2023-03-03T03:52:54;3.38;;;1.00;;
56629;SDS011;42502;40.732;-74.254;2023-03-03T03:54:55;7.50;;;0.90;;
56629;SDS011;42502;40.732;-74.254;2023-03-03T03:56:55;2.72;;;0.95;;
56629;SDS011;42502;40.732;-74.254;2023-03-03T03:58:56;5.30;;;0.88;;
56629;SDS011;42502;40.732;-74.254;2023-03-03T04:01:01;6.70;;;1.02;;
56629;SDS011;42502;40.732;-74.254;2023-03-03T04:03:05;5.88;;;0.88;;
56629;SDS011;42502;40.732;-74.254;2023-03-03T04:05:09;1.73;;;0.88;;
56629;SDS011;42502;40.732;-74.254;2023-03-03T04:07:10;5.95;;;1.00;;
56629;SDS011;42502;40.732;-74.254;2023-03-03T04:09:11;6.13;;;0.80;;
56629;SDS011;42502;40.732;-74.254;2023-03-03T04:11:15;3.63;;;0.80;;
56629;SDS011;42502;40.732;-74.254;2023-03-03T04:13:16;4.53;;;1.10;;
56629;SDS011;42502;40.732;-74.254;2023-03-03T04:15:17;2.35;;;0.75;;
56629;SDS011;42502;40.732;-74.254;2023-03-03T04:17:21;5.20;;;1.30;;
56629;SDS011;42502;40.732;-74.254;2023-03-03T04:19:24;1.88;;;0.93;;
56629;SDS011;42502;40.732;-74.254;2023-03-03T04:21:25;4.30;;;0.80;;
56629;SDS011;42502;40.732;-74.254;2023-03-03T04:23:27;2.05;;;0.98;;
56629;SDS011;42502;40.732;-74.254;2023-03-03T04:25:27;2.92;;;0.70;;
56629;SDS011;42502;40.732;-74.254;2023-03-03T04:27:28;2.13;;;0.73;;
56629;SDS011;42502;40.732;-74.254;2023-03-03T04:29:29;1.88;;;0.80;;
56629;SDS011;42502;40.732;-74.254;2023-03-03T04:31:30;3.20;;;0.82;;
56629;SDS011;42502;40.732;-74.254;2023-03-03T04:33:31;2.25;;;0.80;;
56629;SDS011;42502;40.732;-74.254;2023-03-03T04:35:32;1.42;;;0.75;;
56629;SDS011;42502;40.732;-74.254;2023-03-03T04:37:34;1.05;;;0.88;;
56629;SDS011;42502;40.732;-74.254;2023-03-03T04:39:36;0.73;;;0.70;;
56629;SDS011;42502;40.732;-74.254;2023-03-03T04:41:37;0.85;;;0.70;;
56629;SDS011;42502;40.732;-74.254;2023-03-03T04:43:38;2.03;;;0.63;;
56629;SDS011;42502;40.732;-74.254;2023-03-03T04:45:38;0.70;;;0.60;;
56629;SDS011;42502;40.732;-74.254;2023-03-03T04:47:39;0.80;;;0.70;;
56629;SDS011;42502;40.732;-74.254;2023-03-03T04:49:40;1.25;;;0.70;;
56629;SDS011;42502;40.732;-74.254;2023-03-03T04:51:41;2.83;;;0.80;;
56629;SDS011;42502;40.732;-74.254;2023-03-03T04:53:42;1.92;;;0.70;;
56629;SDS011;42502;40.732;-74.254;2023-03-03T04:55:43;1.95;;;0.70;;
56629;SDS011;42502;40.732;-74.254;2023-03-03T04:57:44;0.98;;;0.65;;
56629;SDS011;42502;40.732;-74.254;2023-03-03T04:59:45;1.17;;;0.55;;
56629;SDS011;42502;40.732;-74.254;2023-03-03T05:01:46;1.52;;;0.70;;
56629;SDS011;42502;40.732;-74.254;2023-03-03T05:03:48;0.90;;;0.63;;
56629;SDS011;42502;40.732;-74.254;2023-03-03T05:05:48;2.28;;;0.60;;
56629;SDS011;42502;40.732;-74.254;2023-03-03T05:07:49;1.52;;;0.77;;
56629;SDS011;42502;40.732;-74.254;2023-03-03T05:09:50;1.73;;;0.50;;
56629;SDS011;42502;40.732;-74.254;2023-03-03T05:11:51;0.63;;;0.50;;
56629;SDS011;42502;40.732;-74.254;2023-03-03T05:13:52;0.60;;;0.60;;
56629;SDS011;42502;40.732;-74.254;2023-03-03T05:15:56;0.70;;;0.57;;
56629;SDS011;42502;40.732;-74.254;2023-03-03T05:17:57;0.50;;;0.50;;
56629;SDS011;42502;40.732;-74.254;2023-03-03T05:19:58;0.68;;;0.60;;
56629;SDS011;42502;40.732;-74.254;2023-03-03T05:21:59;1.80;;;0.50;;
56629;SDS011;42502;40.732;-74.254;2023-03-03T05:24:01;0.63;;;0.60;;
56629;SDS011;42502;40.732;-74.254;2023-03-03T05:26:02;1.02;;;0.45;;
56629;SDS011;42502;40.732;-74.254;2023-03-03T05:28:03;1.10;;;0.60;;
56629;SDS011;42502;40.732;-74.254;2023-03-03T05:30:06;1.33;;;0.70;;
56629;SDS011;42502;40.732;-74.254;2023-03-03T05:32:08;1.20;;;0.50;;
56629;SDS011;42502;40.732;-74.254;2023-03-03T05:34:09;1.30;;;0.70;;
56629;SDS011;42502;40.732;-74.254;2023-03-03T05:36:09;1.10;;;0.50;;
56629;SDS011;42502;40.732;-74.254;2023-03-03T05:38:10;0.70;;;0.50;;
56629;SDS011;42502;40.732;-74.254;2023-03-03T05:40:12;0.75;;;0.50;;
56629;SDS011;42502;40.732;-74.254;2023-03-03T05:42:14;7.38;;;0.73;;
56629;SDS011;42502;40.732;-74.254;2023-03-03T05:44:15;3.33;;;0.50;;
56629;SDS011;42502;40.732;-74.254;2023-03-03T05:46:15;1.98;;;0.50;;
56629;SDS011;42502;40.732;-74.254;2023-03-03T05:48:16;1.35;;;0.55;;
56629;SDS011;42502;40.732;-74.254;2023-03-03T05:50:21;1.60;;;0.40;;
56629;SDS011;42502;40.732;-74.254;2023-03-03T05:52:22;0.68;;;0.50;;
56629;SDS011;42502;40.732;-74.254;2023-03-03T05:54:26;0.85;;;0.60;;
56629;SDS011;42502;40.732;-74.254;2023-03-03T05:56:27;0.60;;;0.50;;
56629;SDS011;42502;40.732;-74.254;2023-03-03T05:58:28;0.70;;;0.50;;
56629;SDS011;42502;40.732;-74.254;2023-03-03T06:00:29;0.90;;;0.55;;
56629;SDS011;42502;40.732;-74.254;2023-03-03T06:02:30;0.80;;;0.40;;
56629;SDS011;42502;40.732;-74.254;2023-03-03T06:04:34;2.58;;;0.50;;
56629;SDS011;42502;40.732;-74.254;2023-03-03T06:06:35;1.73;;;0.50;;
56629;SDS011;42502;40.732;-74.254;2023-03-03T06:08:36;0.50;;;0.50;;
56629;SDS011;42502;40.732;-74.254;2023-03-03T06:10:37;1.63;;;0.40;;
56629;SDS011;42502;40.732;-74.254;2023-03-03T06:12:38;1.60;;;0.50;;
56629;SDS011;42502;40.732;-74.254;2023-03-03T06:14:40;0.95;;;0.40;;
56629;SDS011;42502;40.732;-74.254;2023-03-03T06:16:41;3.75;;;0.50;;
56629;SDS011;42502;40.732;-74.254;2023-03-03T06:18:41;1.65;;;0.57;;
56629;SDS011;42502;40.732;-74.254;2023-03-03T06:20:42;1.38;;;0.52;;
56629;SDS011;42502;40.732;-74.254;2023-03-03T06:22:43;0.75;;;0.45;;
56629;SDS011;42502;40.732;-74.254;2023-03-03T06:24:44;0.55;;;0.40;;
56629;SDS011;42502;40.732;-74.254;2023-03-03T06:26:45;1.65;;;0.40;;
56629;SDS011;42502;40.732;-74.254;2023-03-03T06:28:46;1.70;;;0.47;;
56629;SDS011;42502;40.732;-74.254;2023-03-03T06:30:52;1.60;;;0.50;;
56629;SDS011;42502;40.732;-74.254;2023-03-03T06:32:58;0.60;;;0.40;;
56629;SDS011;42502;40.732;-74.254;2023-03-03T06:34:59;0.65;;;0.40;;
56629;SDS011;42502;40.732;-74.254;2023-03-03T06:37:00;1.45;;;0.30;;
56629;SDS011;42502;40.732;-74.254;2023-03-03T06:39:01;0.75;;;0.40;;
56629;SDS011;42502;40.732;-74.254;2023-03-03T06:41:03;0.50;;;0.50;;
56629;SDS011;42502;40.732;-74.254;2023-03-03T06:43:07;0.40;;;0.40;;
56629;SDS011;42502;40.732;-74.254;2023-03-03T06:45:09;0.50;;;0.47;;
56629;SDS011;42502;40.732;-74.254;2023-03-03T06:47:10;0.50;;;0.40;;
56629;SDS011;42502;40.732;-74.254;2023-03-03T06:49:11;1.08;;;0.40;;
56629;SDS011;42502;40.732;-74.254;2023-03-03T06:51:21;0.40;;;0.40;;
56629;SDS011;42502;40.732;-74.254;2023-03-03T06:53:24;0.40;;;0.40;;
56629;SDS011;42502;40.732;-74.254;2023-03-03T06:55:25;1.13;;;0.40;;
56629;SDS011;42502;40.732;-74.254;2023-03-03T06:57:30;0.30;;;0.30;;
56629;SDS011;42502;40.732;-74.254;2023-03-03T06:59:32;0.70;;;0.40;;
56629;SDS011;42502;40.732;-74.254;2023-03-03T07:01:34;0.73;;;0.40;;
56629;SDS011;42502;40.732;-74.254;2023-03-03T07:03:37;0.40;;;0.40;;
56629;SDS011;42502;40.732;-74.254;2023-03-03T07:05:38;0.65;;;0.40;;
56629;SDS011;42502;40.732;-74.254;2023-03-03T07:07:39;0.43;;;0.30;;
56629;SDS011;42502;40.732;-74.254;2023-03-03T07:09:40;0.30;;;0.30;;
56629;SDS011;42502;40.732;-74.254;2023-03-03T07:11:47;0.40;;;0.40;;
56629;SDS011;42502;40.732;-74.254;2023-03-03T07:13:49;0.30;;;0.30;;
56629;SDS011;42502;40.732;-74.254;2023-03-03T07:15:52;0.30;;;0.30;;
56629;SDS011;42502;40.732;-74.254;2023-03-03T07:17:54;0.40;;;0.40;;
56629;SDS011;42502;40.732;-74.254;2023-03-03T07:19:59;0.30;;;0.30;;
56629;SDS011;42502;40.732;-74.254;2023-03-03T07:22:10;0.30;;;0.30;;
56629;SDS011;42502;40.732;-74.254;2023-03-03T07:24:23;0.47;;;0.40;;
56629;SDS011;42502;40.732;-74.254;2023-03-03T07:26:29;0.40;;;0.38;;
56629;SDS011;42502;40.732;-74.254;2023-03-03T07:28:32;0.30;;;0.30;;
56629;SDS011;42502;40.732;-74.254;2023-03-03T07:30:33;0.40;;;0.30;;
56629;SDS011;42502;40.732;-74.254;2023-03-03T07:32:38;1.35;;;0.50;;
56629;SDS011;42502;40.732;-74.254;2023-03-03T07:34:45;0.40;;;0.30;;
56629;SDS011;42502;40.732;-74.254;2023-03-03T07:36:48;0.98;;;0.30;;
56629;SDS011;42502;40.732;-74.254;2023-03-03T07:38:53;0.40;;;0.40;;
56629;SDS011;42502;40.732;-74.254;2023-03-03T07:41:07;0.30;;;0.30;;
56629;SDS011;42502;40.732;-74.254;2023-03-03T07:43:35;0.32;;;0.32;;
56629;SDS011;42502;40.732;-74.254;2023-03-03T07:45:36;0.30;;;0.30;;
56629;SDS011;42502;40.732;-74.254;2023-03-03T07:47:40;0.35;;;0.35;;
56629;SDS011;42502;40.732;-74.254;2023-03-03T07:49:41;0.50;;;0.32;;
56629;SDS011;42502;40.732;-74.254;2023-03-03T07:51:42;0.47;;;0.30;;
56629;SDS011;42502;40.732;-74.254;2023-03-03T07:53:43;0.40;;;0.30;;
56629;SDS011;42502;40.732;-74.254;2023-03-03T07:55:44;0.60;;;0.40;;
56629;SDS011;42502;40.732;-74.254;2023-03-03T07:57:45;0.30;;;0.30;;
56629;SDS011;42502;40.732;-74.254;2023-03-03T07:59:47;0.40;;;0.30;;
56629;SDS011;42502;40.732;-74.254;2023-03-03T08:01:51;0.75;;;0.40;;
56629;SDS011;42502;40.732;-74.254;2023-03-03T08:03:59;0.30;;;0.30;;
56629;SDS011;42502;40.732;-74.254;2023-03-03T08:06:04;0.55;;;0.30;;
56629;SDS011;42502;40.732;-74.254;2023-03-03T08:08:29;0.20;;;0.20;;
56629;SDS011;42502;40.732;-74.254;2023-03-03T08:12:42;0.40;;;0.30;;
56629;SDS011;42502;40.732;-74.254;2023-03-03T08:14:46;0.30;;;0.30;;
56629;SDS011;42502;40.732;-74.254;2023-03-03T08:16:47;0.40;;;0.32;;
56629;SDS011;42502;40.732;-74.254;2023-03-03T08:18:48;0.55;;;0.40;;
56629;SDS011;42502;40.732;-74.254;2023-03-03T08:20:52;1.23;;;0.30;;
56629;SDS011;42502;40.732;-74.254;2023-03-03T08:22:55;0.30;;;0.30;;
56629;SDS011;42502;40.732;-74.254;2023-03-03T08:24:56;0.40;;;0.30;;
56629;SDS011;42502;40.732;-74.254;2023-03-03T08:26:57;0.30;;;0.30;;
56629;SDS011;42502;40.732;-74.254;2023-03-03T08:28:58;0.32;;;0.30;;
56629;SDS011;42502;40.732;-74.254;2023-03-03T08:31:00;0.57;;;0.30;;
56629;SDS011;42502;40.732;-74.254;2023-03-03T08:33:01;0.30;;;0.30;;
56629;SDS011;42502;40.732;-74.254;2023-03-03T08:35:02;1.13;;;0.30;;
56629;SDS011;42502;40.732;-74.254;2023-03-03T08:37:03;0.40;;;0.30;;
56629;SDS011;42502;40.732;-74.254;2023-03-03T08:39:05;0.50;;;0.38;;
56629;SDS011;42502;40.732;-74.254;2023-03-03T08:41:10;0.90;;;0.30;;
56629;SDS011;42502;40.732;-74.254;2023-03-03T08:43:11;0.30;;;0.30;;
56629;SDS011;42502;40.732;-74.254;2023-03-03T08:45:20;0.30;;;0.30;;
56629;SDS011;42502;40.732;-74.254;2023-03-03T08:47:21;0.32;;;0.30;;
56629;SDS011;42502;40.732;-74.254;2023-03-03T08:49:22;0.57;;;0.30;;
56629;SDS011;42502;40.732;-74.254;2023-03-03T08:51:23;0.30;;;0.30;;
56629;SDS011;42502;40.732;-74.254;2023-03-03T08:53:25;0.57;;;0.30;;
56629;SDS011;42502;40.732;-74.254;2023-03-03T08:55:27;0.20;;;0.20;;
56629;SDS011;42502;40.732;-74.254;2023-03-03T08:57:27;0.30;;;0.20;;
56629;SDS011;42502;40.732;-74.254;2023-03-03T08:59:28;0.30;;;0.30;;
56629;SDS011;42502;40.732;-74.254;2023-03-03T09:01:30;0.25;;;0.25;;
56629;SDS011;42502;40.732;-74.254;2023-03-03T09:03:31;0.25;;;0.25;;
56629;SDS011;42502;40.732;-74.254;2023-03-03T09:05:33;0.55;;;0.30;;
56629;SDS011;42502;40.732;-74.254;2023-03-03T09:07:34;0.30;;;0.30;;
56629;SDS011;42502;40.732;-74.254;2023-03-03T09:09:35;0.30;;;0.30;;
56629;SDS011;42502;40.732;-74.254;2023-03-03T09:11:39;0.30;;;0.30;;
56629;SDS011;42502;40.732;-74.254;2023-03-03T09:13:43;1.42;;;0.30;;
56629;SDS011;42502;40.732;-74.254;2023-03-03T09:15:43;1.10;;;0.30;;
56629;SDS011;42502;40.732;-74.254;2023-03-03T09:17:48;0.43;;;0.20;;
56629;SDS011;42502;40.732;-74.254;2023-03-03T09:19:50;0.30;;;0.30;;
56629;SDS011;42502;40.732;-74.254;2023-03-03T09:21:51;0.30;;;0.30;;
56629;SDS011;42502;40.732;-74.254;2023-03-03T09:23:55;0.30;;;0.20;;
56629;SDS011;42502;40.732;-74.254;2023-03-03T09:26:58;0.30;;;0.30;;
56629;SDS011;42502;40.732;-74.254;2023-03-03T09:28:45;0.20;;;0.20;;
56629;SDS011;42502;40.732;-74.254;2023-03-03T09:30:49;0.28;;;0.20;;
56629;SDS011;42502;40.732;-74.254;2023-03-03T09:32:52;0.32;;;0.30;;
56629;SDS011;42502;40.732;-74.254;2023-03-03T09:34:55;0.40;;;0.30;;
56629;SDS011;42502;40.732;-74.254;2023-03-03T09:36:56;0.40;;;0.22;;
56629;SDS011;42502;40.732;-74.254;2023-03-03T09:38:59;0.40;;;0.28;;
56629;SDS011;42502;40.732;-74.254;2023-03-03T09:41:08;0.30;;;0.28;;
56629;SDS011;42502;40.732;-74.254;2023-03-03T09:48:22;7.97;;;0.40;;
56629;SDS011;42502;40.732;-74.254;2023-03-03T09:51:16;0.30;;;0.30;;
56629;SDS011;42502;40.732;-74.254;2023-03-03T09:56:24;0.30;;;0.30;;
56629;SDS011;42502;40.732;-74.254;2023-03-03T09:58:40;0.90;;;0.25;;
56629;SDS011;42502;40.732;-74.254;2023-03-03T10:00:54;0.40;;;0.20;;
56629;SDS011;42502;40.732;-74.254;2023-03-03T10:07:54;1.25;;;0.30;;
56629;SDS011;42502;40.732;-74.254;2023-03-03T10:15:15;1.25;;;0.15;;
56629;SDS011;42502;40.732;-74.254;2023-03-03T10:26:34;1.95;;;0.20;;
56629;SDS011;42502;40.732;-74.254;2023-03-03T10:49:26;0.77;;;0.30;;
56629;SDS011;42502;40.732;-74.254;2023-03-03T10:51:36;0.82;;;0.30;;
56629;SDS011;42502;40.732;-74.254;2023-03-03T10:54:17;0.30;;;0.20;;
56629;SDS011;42502;40.732;-74.254;2023-03-03T11:06:04;1.52;;;0.20;;
56629;SDS011;42502;40.732;-74.254;2023-03-03T11:08:57;0.75;;;0.15;;
56629;SDS011;42502;40.732;-74.254;2023-03-03T11:10:59;1.60;;;0.20;;
56629;SDS011;42502;40.732;-74.254;2023-03-03T11:30:10;2.88;;;0.30;;
56629;SDS011;42502;40.732;-74.254;2023-03-03T11:32:48;2.60;;;0.20;;
56629;SDS011;42502;40.732;-74.254;2023-03-03T11:37:01;3.67;;;0.40;;
56629;SDS011;42502;40.732;-74.254;2023-03-03T11:39:08;4.35;;;0.57;;
56629;SDS011;42502;40.732;-74.254;2023-03-03T11:41:20;21.15;;;1.00;;
56629;SDS011;42502;40.732;-74.254;2023-03-03T11:43:44;4.65;;;0.90;;
56629;SDS011;42502;40.732;-74.254;2023-03-03T11:46:03;9.20;;;1.10;;
56629;SDS011;42502;40.732;-74.254;2023-03-03T11:50:22;7.43;;;2.10;;
56629;SDS011;42502;40.732;-74.254;2023-03-03T11:52:38;7.50;;;2.47;;
56629;SDS011;42502;40.732;-74.254;2023-03-03T11:59:41;12.02;;;3.65;;
56629;SDS011;42502;40.732;-74.254;2023-03-03T12:13:55;13.48;;;5.28;;
56629;SDS011;42502;40.732;-74.254;2023-03-03T12:16:03;11.40;;;5.20;;
56629;SDS011;42502;40.732;-74.254;2023-03-03T12:23:07;13.35;;;5.65;;
56629;SDS011;42502;40.732;-74.254;2023-03-03T12:25:31;13.43;;;5.43;;
56629;SDS011;42502;40.732;-74.254;2023-03-03T12:29:58;12.45;;;5.07;;
56629;SDS011;42502;40.732;-74.254;2023-03-03T12:34:31;13.52;;;5.15;;
56629;SDS011;42502;40.732;-74.254;2023-03-03T12:36:52;13.55;;;4.82;;
56629;SDS011;42502;40.732;-74.254;2023-03-03T12:40:00;17.30;;;4.95;;
56629;SDS011;42502;40.732;-74.254;2023-03-03T12:41:59;10.13;;;4.32;;
56629;SDS011;42502;40.732;-74.254;2023-03-03T12:44:25;8.85;;;3.92;;
56629;SDS011;42502;40.732;-74.254;2023-03-03T12:46:43;11.13;;;4.10;;
56629;SDS011;42502;40.732;-74.254;2023-03-03T12:48:46;15.90;;;4.32;;
56629;SDS011;42502;40.732;-74.254;2023-03-03T12:51:02;11.32;;;4.30;;
56629;SDS011;42502;40.732;-74.254;2023-03-03T13:02:44;13.07;;;3.75;;
56629;SDS011;42502;40.732;-74.254;2023-03-03T13:16:42;7.95;;;2.53;;
56629;SDS011;42502;40.732;-74.254;2023-03-03T13:19:03;10.55;;;2.55;;
56629;SDS011;42502;40.732;-74.254;2023-03-03T13:23:42;8.32;;;2.60;;
56629;SDS011;42502;40.732;-74.254;2023-03-03T13:26:02;7.72;;;2.28;;
56629;SDS011;42502;40.732;-74.254;2023-03-03T13:30:38;5.18;;;1.80;;
56629;SDS011;42502;40.732;-74.254;2023-03-03T13:32:55;8.60;;;2.05;;
56629;SDS011;42502;40.732;-74.254;2023-03-03T13:39:33;5.68;;;1.52;;
56629;SDS011;42502;40.732;-74.254;2023-03-03T13:41:50;3.95;;;1.55;;
56629;SDS011;42502;40.732;-74.254;2023-03-03T13:44:10;5.28;;;1.55;;
56629;SDS011;42502;40.732;-74.254;2023-03-03T13:46:28;6.38;;;1.63;;
56629;SDS011;42502;40.732;-74.254;2023-03-03T13:56:08;6.63;;;1.50;;
56629;SDS011;42502;40.732;-74.254;2023-03-03T14:12:02;8.35;;;1.27;;
56629;SDS011;42502;40.732;-74.254;2023-03-03T14:19:02;5.13;;;1.00;;
56629;SDS011;42502;40.732;-74.254;2023-03-03T14:21:42;3.88;;;0.90;;
56629;SDS011;42502;40.732;-74.254;2023-03-03T14:26:18;3.45;;;0.90;;
56629;SDS011;42502;40.732;-74.254;2023-03-03T14:28:21;4.07;;;1.48;;
56629;SDS011;42502;40.732;-74.254;2023-03-03T14:32:26;2.40;;;1.00;;
56629;SDS011;42502;40.732;-74.254;2023-03-03T14:34:37;6.82;;;1.00;;
56629;SDS011;42502;40.732;-74.254;2023-03-03T14:36:41;4.50;;;1.00;;
56629;SDS011;42502;40.732;-74.254;2023-03-03T14:38:44;4.00;;;0.85;;
56629;SDS011;42502;40.732;-74.254;2023-03-03T14:41:02;3.25;;;0.90;;
56629;SDS011;42502;40.732;-74.254;2023-03-03T14:43:26;3.45;;;0.90;;
56629;SDS011;42502;40.732;-74.254;2023-03-03T14:45:36;12.20;;;1.00;;
56629;SDS011;42502;40.732;-74.254;2023-03-03T14:47:43;1.85;;;0.93;;
56629;SDS011;42502;40.732;-74.254;2023-03-03T14:49:45;3.28;;;0.93;;
56629;SDS011;42502;40.732;-74.254;2023-03-03T14:51:47;3.40;;;0.90;;
56629;SDS011;42502;40.732;-74.254;2023-03-03T14:53:49;6.88;;;1.10;;
56629;SDS011;42502;40.732;-74.254;2023-03-03T14:55:51;5.55;;;1.02;;
56629;SDS011;42502;40.732;-74.254;2023-03-03T14:57:53;5.00;;;0.93;;
56629;SDS011;42502;40.732;-74.254;2023-03-03T14:59:55;3.35;;;1.10;;
56629;SDS011;42502;40.732;-74.254;2023-03-03T15:02:23;4.55;;;1.13;;
56629;SDS011;42502;40.732;-74.254;2023-03-03T15:04:31;6.07;;;1.35;;
56629;SDS011;42502;40.732;-74.254;2023-03-03T15:06:35;11.50;;;1.10;;
56629;SDS011;42502;40.732;-74.254;2023-03-03T15:08:46;14.32;;;1.40;;
56629;SDS011;42502;40.732;-74.254;2023-03-03T15:10:47;13.77;;;1.40;;
56629;SDS011;42502;40.732;-74.254;2023-03-03T15:12:48;11.60;;;1.13;;